createdAt,value
2023-05-11T00:02:19.594Z,15.38
2023-05-11T00:07:23.726Z,15.12
2023-05-11T00:12:26.462Z,15.01
2023-05-11T00:17:29.292Z,15.11
2023-05-11T00:22:33.406Z,15.52
2023-05-11T00:27:36.128Z,15.35
2023-05-11T00:32:38.896Z,15.23
2023-05-11T00:37:43.007Z,15.09
2023-05-11T00:42:45.822Z,15.01
2023-05-11T00:47:48.631Z,15.31
2023-05-11T00:52:52.853Z,14.99
2023-05-11T00:57:55.657Z,15.39
2023-05-11T01:02:59.565Z,15.21
2023-05-11T01:08:09.779Z,15.09
2023-05-11T01:13:23.000Z,14.87
2023-05-11T01:18:31.792Z,15.44
2023-05-11T01:24:06.477Z,15.13
2023-05-11T01:29:42.105Z,14.87
2023-05-11T01:34:48.263Z,15.25
2023-05-11T01:39:55.302Z,15.29
2023-05-11T01:44:59.234Z,15.66
2023-05-11T01:50:05.887Z,15.37
2023-05-11T01:55:11.267Z,15.62
2023-05-11T02:00:17.204Z,15.29
2023-05-11T02:05:24.900Z,15.17
2023-05-11T02:10:28.956Z,15.35
2023-05-11T02:15:32.437Z,15.48
2023-05-11T02:20:37.724Z,15.26
2023-05-11T02:25:41.408Z,15.03
2023-05-11T02:30:51.010Z,14.95
2023-05-11T02:35:57.165Z,14.92
2023-05-11T02:41:07.229Z,14.91
2023-05-11T02:46:14.323Z,14.93
2023-05-11T02:51:23.285Z,14.90
2023-05-11T02:56:28.226Z,14.99
2023-05-11T03:01:32.870Z,15.07
2023-05-11T03:06:38.253Z,15.46
2023-05-11T03:11:45.753Z,15.15
2023-05-11T03:16:49.777Z,15.07
2023-05-11T03:21:55.384Z,15.46
2023-05-11T03:26:58.932Z,15.49
2023-05-11T03:32:04.175Z,15.64
2023-05-11T03:37:15.116Z,15.08
2023-05-11T03:42:21.174Z,15.48
2023-05-11T03:47:26.904Z,15.55
2023-05-11T03:52:32.752Z,15.30
2023-05-11T03:57:36.098Z,15.10
2023-05-11T04:02:39.063Z,14.97
2023-05-11T04:07:43.345Z,14.94
2023-05-11T04:12:46.208Z,14.86
2023-05-11T04:17:49.112Z,14.71
2023-05-11T04:22:53.348Z,15.38
2023-05-11T04:27:56.259Z,15.64
2023-05-11T04:32:59.201Z,15.40
2023-05-11T04:38:03.482Z,15.75
2023-05-11T04:43:06.604Z,15.63
2023-05-11T04:48:09.560Z,15.37
2023-05-11T04:53:13.804Z,15.90
2023-05-11T04:58:16.840Z,16.30
2023-05-11T05:03:19.848Z,16.29
2023-05-11T05:08:24.083Z,16.46
2023-05-11T05:13:26.940Z,16.15
2023-05-11T05:18:29.951Z,16.09
2023-05-11T05:23:34.405Z,16.08
2023-05-11T05:28:39.644Z,16.25
2023-05-11T05:33:42.565Z,16.29
2023-05-11T05:39:03.777Z,16.61
2023-05-11T05:44:08.676Z,16.44
2023-05-11T05:49:11.681Z,15.99
2023-05-11T05:54:16.112Z,16.56
2023-05-11T05:59:21.080Z,16.35
2023-05-11T06:04:24.177Z,16.36
2023-05-11T06:09:28.422Z,16.27
2023-05-11T06:14:31.626Z,16.18
2023-05-11T06:19:34.828Z,16.35
2023-05-11T06:24:39.187Z,16.61
2023-05-11T06:29:42.575Z,16.63
2023-05-11T06:34:45.486Z,16.87
2023-05-11T06:39:51.251Z,16.83
2023-05-11T06:44:54.350Z,17.15
2023-05-11T06:49:59.328Z,17.12
2023-05-11T06:55:04.501Z,17.18
2023-05-11T07:00:08.511Z,17.17
2023-05-11T07:05:12.222Z,17.40
2023-05-11T07:10:16.587Z,17.15
2023-05-11T07:15:19.549Z,17.33
2023-05-11T07:20:22.403Z,17.72
2023-05-11T07:25:26.826Z,17.56
2023-05-11T07:30:29.841Z,17.71
2023-05-11T07:35:32.654Z,18.21
2023-05-11T07:40:37.478Z,17.89
2023-05-11T07:45:40.537Z,18.31
2023-05-11T07:50:43.666Z,18.49
2023-05-11T07:55:48.079Z,18.17
2023-05-11T08:00:50.845Z,18.45
2023-05-11T08:05:53.707Z,18.76
2023-05-11T08:10:58.111Z,18.87
2023-05-11T08:16:00.933Z,19.10
2023-05-11T08:21:03.831Z,18.20
2023-05-11T08:26:08.107Z,18.70
2023-05-11T08:31:10.940Z,18.55
2023-05-11T08:36:13.941Z,19.28
2023-05-11T08:41:18.517Z,19.65
2023-05-11T08:46:27.138Z,19.91
2023-05-11T08:51:30.621Z,19.58
2023-05-11T08:56:37.074Z,19.03
2023-05-11T09:01:42.363Z,19.03
2023-05-11T09:06:45.370Z,18.80
2023-05-11T09:11:50.541Z,18.65
2023-05-11T09:16:53.374Z,18.17
2023-05-11T09:21:56.472Z,18.13
2023-05-11T09:27:10.587Z,17.94
2023-05-11T09:32:13.356Z,18.13
2023-05-11T09:37:20.144Z,17.97
2023-05-11T09:42:24.433Z,18.33
2023-05-11T09:47:27.622Z,17.94
2023-05-11T09:52:30.682Z,17.90
2023-05-11T09:57:34.790Z,17.80
2023-05-11T10:02:37.893Z,18.06
2023-05-11T10:07:40.934Z,17.70
2023-05-11T10:12:45.392Z,18.16
2023-05-11T10:17:49.380Z,18.95
2023-05-11T10:22:53.731Z,19.23
2023-05-11T10:27:58.692Z,19.36
2023-05-11T10:33:02.075Z,19.35
2023-05-11T10:38:05.876Z,19.57
2023-05-11T10:43:35.829Z,19.99
2023-05-11T10:49:04.095Z,19.33
2023-05-11T10:54:30.909Z,19.33
2023-05-11T11:00:14.258Z,18.93
2023-05-11T11:05:34.195Z,19.84
2023-05-11T11:10:39.271Z,20.12
2023-05-11T11:16:13.911Z,20.05
2023-05-11T11:21:43.247Z,20.04
2023-05-11T11:26:50.603Z,20.01
2023-05-11T11:31:54.899Z,20.43
2023-05-11T11:37:04.987Z,20.74
2023-05-11T11:42:09.341Z,20.58
2023-05-11T11:47:14.652Z,20.66
2023-05-11T11:52:34.504Z,20.79
2023-05-11T11:57:44.155Z,19.88
2023-05-11T12:02:48.414Z,20.45
2023-05-11T12:07:52.596Z,20.97
2023-05-11T12:12:59.226Z,21.33
2023-05-11T12:18:04.143Z,21.42
2023-05-11T12:23:07.063Z,21.44
2023-05-11T12:28:12.428Z,22.18
2023-05-11T12:33:20.281Z,22.27
2023-05-11T12:38:23.590Z,22.20
2023-05-11T12:43:26.666Z,21.95
2023-05-11T12:48:32.979Z,21.92
2023-05-11T12:53:38.056Z,22.62
2023-05-11T12:58:44.066Z,22.75
2023-05-11T13:03:49.264Z,23.06
2023-05-11T13:08:52.440Z,23.54
2023-05-11T13:13:57.048Z,22.76
2023-05-11T13:19:02.599Z,23.29
2023-05-11T13:24:06.211Z,23.30
2023-05-11T13:29:11.560Z,24.48
2023-05-11T13:34:16.474Z,24.32
2023-05-11T13:39:19.524Z,23.95
2023-05-11T13:44:22.272Z,23.03
2023-05-11T13:49:27.472Z,22.44
2023-05-11T13:54:31.764Z,21.83
2023-05-11T13:59:34.920Z,22.00
2023-05-11T14:04:39.977Z,21.91
2023-05-11T14:09:43.720Z,22.07
2023-05-11T14:14:46.563Z,22.34
2023-05-11T14:19:50.681Z,21.51
2023-05-11T14:24:53.390Z,22.84
2023-05-11T14:29:56.186Z,22.62
2023-05-11T14:35:00.532Z,22.26
2023-05-11T14:40:03.522Z,22.56
2023-05-11T14:45:07.723Z,23.31
2023-05-11T14:50:12.337Z,23.75
2023-05-11T14:55:15.102Z,23.50
2023-05-11T15:00:18.807Z,22.79
2023-05-11T15:05:22.942Z,22.21
2023-05-11T15:10:25.855Z,23.09
2023-05-11T15:15:28.834Z,23.17
2023-05-11T15:20:34.595Z,22.83
2023-05-11T15:25:37.828Z,22.90
2023-05-11T15:30:41.605Z,22.73
2023-05-11T15:35:45.809Z,22.37
2023-05-11T15:40:48.764Z,22.28
2023-05-11T15:45:51.834Z,22.29
2023-05-11T15:50:56.116Z,21.88
2023-05-11T15:55:59.035Z,22.02
2023-05-11T16:01:02.076Z,22.05
2023-05-11T16:06:07.243Z,21.97
2023-05-11T16:11:10.088Z,22.34
2023-05-11T16:16:13.293Z,21.72
2023-05-11T16:21:17.564Z,21.91
2023-05-11T16:26:20.447Z,22.03
2023-05-11T16:31:23.793Z,22.28
2023-05-11T16:36:29.428Z,21.92
2023-05-11T16:41:32.457Z,21.73
2023-05-11T16:46:35.366Z,21.81
2023-05-11T16:51:41.608Z,21.75
2023-05-11T16:56:44.550Z,21.81
2023-05-11T17:01:47.535Z,21.55
2023-05-11T17:06:52.157Z,22.19
2023-05-11T17:11:57.381Z,22.36
2023-05-11T17:17:00.257Z,22.13
2023-05-11T17:22:04.681Z,21.77
2023-05-11T17:27:07.567Z,21.29
2023-05-11T17:32:10.524Z,21.02
2023-05-11T17:37:30.606Z,21.26
2023-05-11T17:42:35.733Z,20.95
2023-05-11T17:47:38.729Z,21.06
2023-05-11T17:52:45.310Z,21.31
2023-05-11T17:57:48.456Z,20.80
2023-05-11T18:02:51.533Z,20.70
2023-05-11T18:07:56.274Z,20.58
2023-05-11T18:13:01.678Z,20.58
2023-05-11T18:18:04.629Z,20.72
2023-05-11T18:23:08.831Z,20.43
2023-05-11T18:28:11.693Z,20.11
2023-05-11T18:33:14.561Z,20.21
2023-05-11T18:38:19.237Z,20.00
2023-05-11T18:43:22.117Z,20.06
2023-05-11T18:48:24.964Z,19.51
2023-05-11T18:53:29.434Z,19.58
2023-05-11T18:58:32.306Z,19.53
2023-05-11T19:03:36.146Z,19.28
2023-05-11T19:08:40.382Z,19.42
2023-05-11T19:13:43.874Z,19.54
2023-05-11T19:18:46.662Z,19.61
2023-05-11T19:23:50.994Z,19.28
2023-05-11T19:28:53.833Z,19.19
2023-05-11T19:33:56.628Z,19.31
2023-05-11T19:39:00.807Z,19.44
2023-05-11T19:44:03.761Z,19.24
2023-05-11T19:49:06.640Z,19.29
2023-05-11T19:54:11.395Z,19.36
2023-05-11T19:59:20.569Z,19.47
2023-05-11T20:04:31.223Z,19.33
2023-05-11T20:09:38.070Z,19.44
2023-05-11T20:14:42.292Z,19.51
2023-05-11T20:19:45.163Z,19.42
2023-05-11T20:24:49.430Z,19.36
2023-05-11T20:29:54.729Z,19.33
2023-05-11T20:34:57.595Z,19.02
2023-05-11T20:40:02.146Z,19.43
2023-05-11T20:45:07.361Z,19.39
2023-05-11T20:50:10.921Z,19.32
2023-05-11T20:55:16.025Z,19.24
2023-05-11T21:00:19.039Z,19.28
2023-05-11T21:05:23.558Z,19.19
2023-05-11T21:10:29.671Z,19.11
2023-05-11T21:15:32.543Z,19.14
2023-05-11T21:20:35.285Z,19.19
2023-05-11T21:25:39.414Z,18.90
2023-05-11T21:30:42.347Z,19.10
2023-05-11T21:35:45.244Z,19.12
2023-05-11T21:40:53.108Z,18.64
2023-05-11T21:45:56.045Z,18.64
2023-05-11T21:50:58.832Z,18.28
2023-05-11T21:56:02.970Z,18.19
2023-05-11T22:01:05.895Z,18.02
2023-05-11T22:06:08.970Z,17.83
2023-05-11T22:11:13.108Z,17.66
2023-05-11T22:16:16.227Z,17.12
2023-05-11T22:21:19.010Z,17.31
2023-05-11T22:26:23.133Z,16.88
2023-05-11T22:31:26.779Z,16.89
2023-05-11T22:36:29.688Z,16.77
2023-05-11T22:41:33.921Z,17.20
2023-05-11T22:46:36.685Z,17.29
2023-05-11T22:51:39.470Z,16.98
2023-05-11T22:56:44.102Z,17.34
2023-05-11T23:01:47.389Z,17.34
2023-05-11T23:06:50.363Z,17.29
2023-05-11T23:11:54.639Z,17.38
2023-05-11T23:16:57.475Z,17.35
2023-05-11T23:22:00.236Z,17.34
2023-05-11T23:27:04.752Z,17.13
2023-05-11T23:32:08.674Z,17.10
2023-05-11T23:37:11.563Z,17.03
2023-05-11T23:42:15.727Z,17.11
2023-05-11T23:47:18.539Z,17.04
2023-05-11T23:52:21.841Z,17.00
2023-05-11T23:57:26.122Z,17.12
